FW0501 Weather Reports


time (UTC)temp
C
wind
direction
speed
KPH
gust
KPH
rain 1hr
cm
rain 24hr
cm
rain mn
cm
humidity
%
barometer
mb
20200531071944 21 71 1.6 4.8 0.00 0.00 0.00 40 1015.9
20200531071441 21 231 0.0 3.2 0.00 0.00 0.00 40 1015.9
20200531070942 21 222 0.0 3.2 0.00 0.00 0.00 40 1015.9
20200531070440 21 207 1.6 3.2 0.00 0.00 0.00 40 1015.9
20200531065939 22 155 1.6 8.0 0.00 0.00 0.00 39 1015.8
20200531065439 23 108 1.6 8.0 0.00 0.00 0.00 37 1015.8
20200531064939 23 336 1.6 3.2 0.00 0.00 0.00 35 1015.9
20200531064439 24 235 3.2 6.4 0.00 0.00 0.00 34 1015.5
20200531063939 24 237 4.8 6.4 0.00 0.00 0.00 34 1015.6
20200531063438 24 231 4.8 6.4 0.00 0.00 0.00 35 1015.6
20200531062938 24 249 1.6 6.4 0.00 0.00 0.00 35 1015.6
20200531062437 24 202 1.6 6.4 0.00 0.00 0.00 35 1015.7
20200531061939 24 237 3.2 6.4 0.00 0.00 0.00 35 1015.6
20200531061437 24 232 1.6 6.4 0.00 0.00 0.00 35 1015.6
20200531060937 25 240 1.6 4.8 0.00 0.00 0.00 35 1015.7
20200531060437 25 242 3.2 4.8 0.00 0.00 0.00 34 1015.8
20200531055937 25 253 3.2 4.8 0.00 0.00 0.00 34 1015.8
20200531055438 25 246 1.6 4.8 0.00 0.00 0.00 34 1015.7
20200531054937 25 236 0.0 3.2 0.00 0.00 0.00 35 1015.7
20200531054437 24 248 1.6 3.2 0.00 0.00 0.00 35 1015.7
20200531053935 24 238 1.6 3.2 0.00 0.00 0.00 35 1015.7
20200531053436 25 221 0.0 3.2 0.00 0.00 0.00 35 1015.8
20200531052935 25 217 0.0 3.2 0.00 0.00 0.00 35 1015.8
20200531052436 25 63 0.0 3.2 0.00 0.00 0.00 35 1015.7
20200531052206 25 344 0.0 1.6 0.00 0.00 0.00 34 1015.8
20200531051435 26 39 0.0 1.6 0.00 0.00 0.00 34 1015.8
20200531050935 26 39 0.0 3.2 0.00 0.00 0.00 33 1015.9
20200531050438 26 40 1.6 4.8 0.00 0.00 0.00 33 1015.8
20200531045935 26 310 1.6 4.8 0.00 0.00 0.00 32 1015.8
20200531045434 27 290 1.6 3.2 0.00 0.00 0.00 32 1015.8
20200531044933 27 319 1.6 8.0 0.00 0.00 0.00 31 1015.7
20200531044435 27 15 1.6 8.0 0.00 0.00 0.00 31 1015.5
20200531043931 27 279 1.6 6.4 0.00 0.00 0.00 31 1015.5
20200531043432 27 309 1.6 6.4 0.00 0.00 0.00 31 1015.6
20200531043202 27 24 1.6 6.4 0.00 0.00 0.00 31 1015.6
20200531042932 27 24 1.6 6.4 0.00 0.00 0.00 31 1015.6
20200531042437 28 17 1.6 8.0 0.00 0.00 0.00 30 1015.5
20200531041931 28 112 3.2 8.0 0.00 0.00 0.00 30 1015.4
20200531041435 28 304 4.8 11.3 0.00 0.00 0.00 30 1015.4
20200531040930 28 36 6.4 12.9 0.00 0.00 0.00 30 1015.3
20200531040709 28 68 3.2 12.9 0.00 0.00 0.00 29 1015.3
20200531040444 28 68 3.2 12.9 0.00 0.00 0.00 29 1015.3
20200531035928 28 41 3.2 11.3 0.00 0.00 0.00 29 1015.3
20200531035427 28 248 4.8 12.9 0.00 0.00 0.00 28 1015.3
20200531035200 29 18 4.8 12.9 0.00 0.00 0.00 26 1015.2
20200531034934 29 18 4.8 12.9 0.00 0.00 0.00 26 1015.2
20200531034436 29 13 3.2 8.0 0.00 0.00 0.00 26 1015.0
20200531033929 29 231 4.8 22.5 0.00 0.00 0.00 26 1014.9
20200531033422 30 323 6.4 29.0 0.00 0.00 0.00 26 1014.9
20200531032927 30 245 12.9 33.8 0.00 0.00 0.00 26 1014.8
20200531032427 30 267 14.5 33.8 0.00 0.00 0.00 25 1014.9
20200531031923 30 263 14.5 30.6 0.00 0.00 0.00 25 1014.8
20200531031653 30 268 16.1 30.6 0.00 0.00 0.00 24 1014.8
20200531031421 30 268 16.1 30.6 0.00 0.00 0.00 24 1014.8
20200531030925 30 314 12.9 27.4 0.00 0.00 0.00 24 1014.9
20200531030920 30 316 14.5 30.6 0.00 0.00 0.00 24 1014.8
20200531030652 30 314 12.9 27.4 0.00 0.00 0.00 24 1014.9
20200531025918 30 308 12.9 25.7 0.00 0.00 0.00 24 1015.0
20200531025418 30 230 14.5 27.4 0.00 0.00 0.00 23 1015.0
20200531024918 30 235 14.5 29.0 0.00 0.00 0.00 23 1014.9
20200531024417 31 260 16.1 35.4 0.00 0.00 0.00 23 1014.7
20200531023916 31 248 17.7 40.2 0.00 0.00 0.00 23 1014.4
20200531023418 31 259 19.3 40.2 0.00 0.00 0.00 23 1014.4
20200531022918 31 283 17.7 37.0 0.00 0.00 0.00 22 1014.3
20200531022419 31 302 14.5 33.8 0.00 0.00 0.00 22 1014.2
20200531021917 31 256 14.5 33.8 0.00 0.00 0.00 21 1014.2
20200531021418 31 223 11.3 30.6 0.00 0.00 0.00 20 1014.0
20200531020919 31 253 8.0 24.1 0.00 0.00 0.00 20 1013.9
20200531020418 31 272 6.4 24.1 0.00 0.00 0.00 21 1013.8
20200531015917 31 254 3.2 16.1 0.00 0.00 0.00 22 1013.7
20200531015418 31 248 3.2 9.7 0.00 0.00 0.00 22 1013.6
20200531014917 31 275 3.2 11.3 0.00 0.00 0.00 22 1013.6
20200531014417 31 263 3.2 12.9 0.00 0.00 0.00 23 1013.6
20200531013917 31 271 3.2 12.9 0.00 0.00 0.00 23 1013.5
20200531013417 31 330 3.2 9.7 0.00 0.00 0.00 23 1013.5
20200531012917 31 299 1.6 8.0 0.00 0.00 0.00 23 1013.5
20200531012416 31 306 3.2 12.9 0.00 0.00 0.00 22 1013.3
20200531011917 31 282 3.2 12.9 0.00 0.00 0.00 22 1013.0
20200531011418 31 259 3.2 11.3 0.00 0.00 0.00 22 1013.0
20200531010917 31 247 3.2 12.9 0.00 0.00 0.00 23 1012.9
20200531010417 31 264 6.4 17.7 0.00 0.00 0.00 22 1013.0
20200531005916 31 255 8.0 30.6 0.00 0.00 0.00 22 1012.9
20200531005415 32 290 9.7 30.6 0.00 0.00 0.00 22 1013.0
20200531004913 32 281 8.0 24.1 0.00 0.00 0.00 22 1013.1
20200531004413 32 248 8.0 25.7 0.00 0.00 0.00 21 1013.3
20200531003913 32 281 9.7 25.7 0.00 0.00 0.00 20 1013.1
20200531003413 32 252 11.3 25.7 0.00 0.00 0.00 19 1013.1
20200531002912 32 319 12.9 29.0 0.00 0.00 0.00 19 1013.3
20200531002413 33 258 14.5 32.2 0.00 0.00 0.00 19 1013.4
20200531001912 33 252 11.3 32.2 0.00 0.00 0.00 19 1013.4
20200531001411 33 260 14.5 37.0 0.00 0.00 0.00 19 1013.4
20200531000910 33 271 14.5 37.0 0.00 0.00 0.00 19 1013.4
20200531000409 33 257 11.3 29.0 0.00 0.00 0.00 19 1013.3
20200530235908 34 264 12.9 29.0 0.00 0.00 0.00 19 1013.3
20200530235409 34 250 11.3 25.7 0.00 0.00 0.00 19 1013.4
20200530234909 35 259 6.4 19.3 0.00 0.00 0.00 19 1013.5
20200530234409 35 247 4.8 14.5 0.00 0.00 0.00 16 1013.5
20200530233908 36 240 3.2 11.3 0.00 0.00 0.00 16 1013.6
20200530233408 36 253 3.2 11.3 0.00 0.00 0.00 16 1013.6
20200530232912 36 251 6.4 16.1 0.00 0.00 0.00 16 1013.7
20200530232408 36 196 8.0 16.1 0.00 0.00 0.00 15 1013.8
20200530231908 36 206 8.0 16.1 0.00 0.00 0.00 15 1013.8
20200530231406 36 265 8.0 16.1 0.00 0.00 0.00 15 1013.9
20200530230906 36 200 8.0 14.5 0.00 0.00 0.00 15 1013.9
20200530230412 36 219 8.0 16.1 0.00 0.00 0.00 15 1014.0
20200530225907 36 211 6.4 16.1 0.00 0.00 0.00 15 1013.9
20200530225406 36 239 4.8 14.5 0.00 0.00 0.00 15 1014.0
20200530224905 36 252 4.8 11.3 0.00 0.05 0.00 15 1014.0
20200530224406 36 232 4.8 14.5 0.00 0.08 0.00 15 1014.0
20200530223906 36 200 6.4 14.5 0.00 0.08 0.00 14 1013.9
20200530223407 36 194 8.0 17.7 0.00 0.08 0.00 14 1014.0
20200530223138 36 231 9.7 19.3 0.00 0.08 0.00 15 1014.0
20200530222906 36 231 9.7 19.3 0.00 0.08 0.00 15 1014.0
20200530222409 36 205 8.0 19.3 0.00 0.08 0.00 15 1014.0
20200530221906 36 231 6.4 17.7 0.00 0.08 0.00 14 1014.0
20200530221408 36 165 6.4 14.5 0.00 0.08 0.00 14 1014.0
20200530220909 36 197 6.4 12.9 0.00 0.08 0.00 14 1014.2
20200530220638 36 204 4.8 11.3 0.00 0.08 0.00 15 1014.3
20200530215907 36 189 6.4 17.7 0.00 0.08 0.00 14 1014.3
20200530215407 36 156 6.4 17.7 0.00 0.08 0.00 14 1014.4
20200530214906 36 169 4.8 16.1 0.00 0.08 0.00 14 1014.4
20200530214406 37 183 6.4 16.1 0.00 0.08 0.00 14 1014.5
20200530213906 37 108 6.4 14.5 0.00 0.08 0.00 14 1014.6
20200530213406 37 123 6.4 14.5 0.00 0.08 0.00 14 1014.7
20200530212907 37 104 8.0 16.1 0.00 0.08 0.00 14 1014.7
20200530212407 37 122 9.7 22.5 0.00 0.08 0.00 14 1014.8
20200530211904 38 178 9.7 27.4 0.00 0.08 0.00 13 1014.8
20200530211404 38 155 6.4 27.4 0.00 0.08 0.00 13 1014.9
20200530210901 38 169 4.8 14.5 0.00 0.08 0.00 13 1014.9
20200530210402 38 114 6.4 14.5 0.00 0.08 0.00 14 1015.2
20200530205902 38 103 8.0 19.3 0.00 0.08 0.00 13 1015.3
20200530205401 38 131 11.3 29.0 0.00 0.08 0.00 13 1015.4
20200530204900 38 241 11.3 29.0 0.00 0.08 0.00 13 1015.4
20200530204400 38 150 9.7 27.4 0.00 0.08 0.00 14 1015.4
20200530203910 38 147 8.0 24.1 0.00 0.08 0.00 14 1015.4
20200530203359 38 135 9.7 24.1 0.00 0.08 0.00 14 1015.6
20200530202902 37 228 9.7 22.5 0.00 0.08 0.00 13 1015.5
20200530202357 38 193 8.0 22.5 0.00 0.08 0.00 14 1015.6
20200530201858 37 150 11.3 20.9 0.00 0.08 0.00 14 1015.7
20200530201358 37 143 12.9 27.4 0.00 0.08 0.00 14 1015.7
20200530200858 37 76 14.5 35.4 0.00 0.08 0.00 14 1015.9
20200530200358 37 115 16.1 35.4 0.00 0.08 0.00 14 1015.8
20200530195858 37 113 14.5 30.6 0.00 0.08 0.00 14 1016.0
20200530195358 37 114 11.3 25.7 0.00 0.08 0.00 13 1016.0
20200530194858 37 219 12.9 24.1 0.00 0.08 0.00 13 1015.9
20200530194357 37 153 14.5 29.0 0.00 0.08 0.00 14 1016.0
20200530193857 37 110 11.3 29.0 0.00 0.08 0.00 13 1016.2
20200530193358 37 103 6.4 22.5 0.00 0.08 0.00 13 1016.4
20200530192858 37 153 8.0 19.3 0.00 0.08 0.00 13 1016.4
20200530192358 37 180 9.7 24.1 0.00 0.08 0.00 13 1016.5
20200530191858 37 143 9.7 24.1 0.00 0.08 0.00 13 1016.5
20200530191358 37 139 9.7 20.9 0.00 0.08 0.00 13 1016.6
20200530190857 36 136 9.7 29.0 0.00 0.08 0.00 13 1016.5
20200530190358 37 111 12.9 29.0 0.00 0.08 0.00 13 1016.8
20200530185902 37 199 14.5 27.4 0.00 0.08 0.00 14 1016.8
20200530185357 36 105 9.7 27.4 0.00 0.08 0.00 14 1016.8
20200530184858 37 113 4.8 22.5 0.00 0.08 0.00 14 1016.9
20200530184358 36 247 6.4 20.9 0.00 0.08 0.00 15 1016.8
20200530183855 37 122 8.0 17.7 0.00 0.08 0.00 14 1016.9
20200530183355 36 158 9.7 19.3 0.00 0.08 0.00 13 1017.1
20200530182901 36 122 11.3 20.9 0.00 0.08 0.00 15 1017.4
20200530182355 36 78 9.7 20.9 0.00 0.08 0.00 16 1017.4
20200530181855 36 91 9.7 25.7 0.00 0.08 0.00 15 1017.3
20200530181355 36 240 11.3 25.7 0.00 0.08 0.00 16 1017.4
20200530180855 36 195 8.0 20.9 0.00 0.08 0.00 16 1017.7
20200530180355 36 208 6.4 16.1 0.00 0.08 0.00 16 1017.7
20200530175855 36 146 8.0 17.7 0.00 0.08 0.00 17 1017.6
20200530175353 35 149 8.0 19.3 0.00 0.08 0.00 17 1017.7
20200530174852 35 195 8.0 19.3 0.00 0.08 0.00 17 1017.7
20200530174352 35 188 8.0 19.3 0.00 0.08 0.00 18 1017.7
20200530173852 35 139 9.7 19.3 0.00 0.08 0.00 18 1017.7
20200530173351 34 102 9.7 17.7 0.00 0.08 0.00 19 1017.8
20200530172851 35 115 8.0 17.7 0.00 0.08 0.00 18 1017.9
20200530172351 35 173 9.7 22.5 0.00 0.08 0.00 18 1017.9
20200530171852 34 241 8.0 22.5 0.00 0.08 0.00 19 1017.9
20200530171351 35 88 8.0 17.7 0.00 0.08 0.00 19 1018.1
20200530170851 34 149 9.7 20.9 0.00 0.08 0.00 21 1017.9
20200530170352 34 127 8.0 20.9 0.00 0.08 0.00 20 1018.1
20200530165851 34 166 6.4 12.9 0.00 0.08 0.00 20 1018.1
20200530165352 34 169 6.4 12.9 0.00 0.08 0.00 20 1018.1
20200530164851 34 120 6.4 19.3 0.00 0.08 0.00 21 1018.1
20200530164351 33 141 6.4 19.3 0.00 0.08 0.00 21 1018.1
20200530163851 33 125 8.0 16.1 0.00 0.08 0.00 22 1018.1
20200530163351 33 161 6.4 16.1 0.00 0.08 0.00 22 1018.2
20200530162851 33 214 4.8 9.7 0.00 0.08 0.00 23 1018.1
20200530162350 32 139 6.4 16.1 0.00 0.08 0.00 24 1018.1
20200530161849 32 125 4.8 16.1 0.00 0.08 0.00 24 1018.2
20200530161349 32 212 4.8 12.9 0.00 0.08 0.00 27 1018.3
20200530160849 31 149 4.8 11.3 0.00 0.08 0.00 28 1018.3
20200530160349 30 150 4.8 11.3 0.00 0.08 0.00 29 1018.4
20200530155849 30 155 4.8 12.9 0.00 0.08 0.00 33 1018.4
20200530155349 30 160 6.4 12.9 0.00 0.08 0.00 34 1018.5
20200530154849 29 102 6.4 11.3 0.00 0.08 0.00 35 1018.6
20200530154349 28 146 6.4 9.7 0.00 0.08 0.00 36 1018.5
20200530153849 28 111 6.4 11.3 0.00 0.08 0.00 38 1018.6
20200530153349 28 112 6.4 11.3 0.00 0.08 0.00 40 1018.5
20200530152846 27 114 4.8 11.3 0.00 0.08 0.00 41 1018.6
20200530152347 27 93 4.8 9.7 0.00 0.08 0.00 42 1018.6
20200530151847 27 115 3.2 9.7 0.00 0.08 0.00 42 1018.6
20200530151347 26 121 3.2 9.7 0.00 0.08 0.00 44 1018.6
20200530150847 26 100 3.2 8.0 0.00 0.08 0.00 44 1018.6
20200530150347 26 151 3.2 6.4 0.00 0.08 0.00 46 1018.6
20200530145847 25 108 3.2 6.4 0.00 0.08 0.00 46 1018.7
20200530145346 25 108 1.6 6.4 0.00 0.08 0.00 46 1018.7
20200530144847 25 176 1.6 6.4 0.00 0.08 0.00 47 1018.7
20200530144347 24 132 1.6 6.4 0.00 0.08 0.00 48 1018.8
20200530143845 23 141 1.6 4.8 0.00 0.08 0.00 50 1018.6
20200530143345 23 117 1.6 6.4 0.00 0.08 0.00 51 1018.6
20200530142843 22 108 1.6 6.4 0.00 0.08 0.00 51 1018.5
20200530142343 22 93 3.2 4.8 0.00 0.08 0.00 53 1018.4
20200530141844 22 120 3.2 4.8 0.00 0.08 0.00 52 1018.4
20200530141343 22 94 1.6 4.8 0.00 0.08 0.00 51 1018.3
20200530140844 22 90 0.0 4.8 0.00 0.08 0.00 49 1018.4
20200530140342 22 65 0.0 1.6 0.00 0.08 0.00 49 1018.5
20200530135841 22 56 0.0 1.6 0.00 0.08 0.00 51 1018.3
20200530135339 22 55 0.0 1.6 0.00 0.08 0.00 52 1018.2
20200530134839 21 172 0.0 0.0 0.00 0.08 0.00 53 1018.2
20200530134338 21 173 0.0 0.0 0.00 0.08 0.00 54 1018.4
20200530133837 21 172 0.0 0.0 0.00 0.08 0.00 55 1018.3
20200530133334 20 172 0.0 3.2 0.00 0.08 0.00 58 1018.3
20200530132835 20 175 1.6 3.2 0.00 0.08 0.00 59 1018.3
20200530132333 19 161 1.6 3.2 0.00 0.08 0.00 61 1018.3
20200530131833 18 194 1.6 3.2 0.00 0.08 0.00 62 1018.2
20200530131332 18 207 1.6 6.4 0.00 0.08 0.00 63 1018.2
20200530130831 18 156 1.6 6.4 0.00 0.08 0.00 65 1018.1
20200530130330 18 108 1.6 4.8 0.00 0.08 0.00 65 1018.1
20200530125831 18 93 0.0 3.2 0.00 0.08 0.00 66 1017.9
20200530125331 17 73 0.0 3.2 0.00 0.08 0.00 66 1017.8
20200530124831 17 81 0.0 3.2 0.00 0.08 0.00 67 1017.7
20200530124331 17 68 0.0 3.2 0.00 0.08 0.00 66 1017.8
20200530123829 18 93 0.0 1.6 0.00 0.08 0.00 65 1017.8
20200530123328 17 94 0.0 1.6 0.00 0.08 0.00 65 1017.9
20200530122829 17 104 0.0 3.2 0.00 0.08 0.00 65 1017.7
20200530122326 17 150 1.6 4.8 0.00 0.08 0.00 64 1017.6
20200530121825 18 194 1.6 9.7 0.00 0.08 0.00 62 1017.5
20200530121325 18 121 3.2 12.9 0.00 0.08 0.00 57 1017.6
20200530120824 18 111 3.2 12.9 0.00 0.08 0.00 58 1017.5
20200530120325 18 214 1.6 6.4 0.00 0.08 0.00 59 1017.4
20200530115825 18 198 1.6 4.8 0.00 0.08 0.00 61 1017.4
20200530115325 18 129 1.6 4.8 0.00 0.08 0.00 54 1017.4
20200530114824 20 106 3.2 4.8 0.00 0.08 0.00 51 1017.3
20200530114325 19 244 3.2 4.8 0.00 0.08 0.00 53 1017.2
20200530113824 18 236 1.6 3.2 0.00 0.08 0.00 56 1017.2
20200530113325 18 223 1.6 3.2 0.00 0.08 0.00 57 1017.2
20200530112825 19 186 0.0 1.6 0.00 0.08 0.00 56 1017.3
20200530112324 20 150 0.0 1.6 0.00 0.08 0.00 54 1017.3
20200530111825 20 123 0.0 1.6 0.00 0.08 0.00 53 1017.3
20200530111324 21 160 0.0 0.0 0.00 0.08 0.00 54 1017.3
20200530110825 21 160 0.0 0.0 0.00 0.08 0.00 53 1017.3
20200530110324 21 160 0.0 0.0 0.00 0.08 0.00 53 1017.4
20200530105824 20 160 0.0 0.0 0.00 0.08 0.00 52 1017.4
20200530104824 20 233 1.6 3.2 0.00 0.08 0.00 51 1017.4
20200530104324 20 230 1.6 4.8 0.00 0.08 0.00 52 1017.5
20200530103825 20 228 3.2 6.4 0.00 0.08 0.00 53 1017.4
20200530103324 19 209 3.2 6.4 0.00 0.08 0.00 54 1017.5
20200530102825 19 241 1.6 4.8 0.00 0.08 0.00 55 1017.5
20200530102325 19 214 0.0 3.2 0.00 0.08 0.00 57 1017.6
20200530101824 19 181 0.0 0.0 0.00 0.08 0.00 56 1017.6
20200530101322 19 181 0.0 0.0 0.00 0.08 0.00 55 1017.6
20200530100822 19 181 0.0 0.0 0.00 0.08 0.00 55 1017.7
20200530100322 20 239 0.0 0.0 0.00 0.08 0.00 59 1017.7
20200530095825 20 240 0.0 0.0 0.00 0.08 0.00 59 1017.8
20200530095322 20 239 0.0 0.0 0.00 0.08 0.00 59 1017.7
20200530094822 20 239 0.0 0.0 0.00 0.08 0.00 58 1017.7
20200530094323 20 239 0.0 3.2 0.00 0.08 0.00 55 1017.7
20200530093823 20 239 0.0 3.2 0.00 0.08 0.00 56 1017.6
20200530093323 21 237 0.0 3.2 0.00 0.08 0.00 55 1017.6
20200530092822 21 250 1.6 3.2 0.00 0.08 0.00 53 1017.6
20200530092322 21 229 0.0 3.2 0.00 0.08 0.00 53 1017.5
20200530091823 21 248 0.0 1.6 0.00 0.08 0.00 53 1017.5
20200530091322 21 251 0.0 1.6 0.00 0.08 0.00 55 1017.5
20200530090822 21 242 0.0 0.0 0.00 0.08 0.00 55 1017.5
20200530090322 21 241 0.0 0.0 0.00 0.08 0.00 55 1017.6
20200530085822 21 242 0.0 1.6 0.00 0.08 0.00 54 1017.6
20200530085322 21 242 0.0 1.6 0.00 0.08 0.00 55 1017.7
20200530084822 21 238 0.0 1.6 0.00 0.08 0.00 55 1017.7
20200530084323 21 240 0.0 1.6 0.00 0.08 0.00 56 1017.8
20200530083822 21 240 0.0 1.6 0.00 0.08 0.00 56 1017.8
20200530083322 21 252 0.0 0.0 0.00 0.08 0.00 57 1017.8
20200530082824 21 324 0.0 0.0 0.00 0.08 0.00 57 1017.8
20200530082322 21 324 0.0 0.0 0.00 0.08 0.00 56 1017.9
20200530081822 21 325 0.0 1.6 0.00 0.08 0.00 56 1018.2
20200530081322 21 324 0.0 1.6 0.00 0.08 0.00 56 1018.1
20200530080822 21 86 0.0 1.6 0.00 0.08 0.00 55 1018.3
20200530080323 21 98 0.0 1.6 0.00 0.08 0.00 52 1018.2
20200530075822 22 128 0.0 1.6 0.00 0.08 0.00 49 1018.3
20200530075322 23 129 0.0 1.6 0.00 0.08 0.00 48 1018.3
20200530074821 23 167 0.0 0.0 0.00 0.08 0.00 47 1018.4
20200530074320 23 210 0.0 1.6 0.00 0.08 0.00 47 1018.5
20200530073820 23 210 1.6 4.8 0.00 0.08 0.00 47 1018.6
20200530073320 23 211 3.2 6.4 0.00 0.08 0.00 47 1018.6
20200530072820 23 195 4.8 6.4 0.00 0.08 0.00 47 1018.6
20200530072320 23 220 3.2 6.4 0.00 0.08 0.00 47 1018.7